Time;durP1;ratioP1;P1;durP2;ratioP2;P2;SDS_P1;SDS_P2;PMS_P1;PMS_P2;Temp;Humidity;BMP_temperature;BMP_pressure;BME280_temperature;BME280_humidity;BME280_pressure;Samples;Min_cycle;Max_cycle;Signal;HPM_P1;HPM_P2
2023/01/21 00:01:23;;;;;;;27.70;9.98;;;;;;;0.28;60.97;101366.21;1886133;74;21588;-54
2023/01/21 00:03:52;;;;;;;33.45;12.37;;;;;;;0.21;61.30;101361.36;1907222;74;21107;-52
2023/01/21 00:06:21;;;;;;;29.18;10.75;;;;;;;0.17;62.31;101364.77;1902277;74;21218;-48
2023/01/21 00:08:49;;;;;;;25.08;10.65;;;;;;;0.16;62.00;101377.25;1890750;76;21065;-52
2023/01/21 00:11:18;;;;;;;28.83;11.00;;;;;;;0.15;61.86;101372.51;1912426;74;21109;-49
2023/01/21 00:13:46;;;;;;;24.10;11.03;;;;;;;0.17;61.72;101377.28;1930103;74;21041;-47
2023/01/21 00:16:15;;;;;;;30.12;11.70;;;;;;;0.18;61.68;101380.73;1908714;74;21109;-50
2023/01/21 00:18:46;;;;;;;32.15;11.90;;;;;;;0.18;61.67;101376.84;1930111;74;21104;-57
2023/01/21 00:21:14;;;;;;;27.98;11.20;;;;;;;0.17;61.61;101380.30;1928970;74;21109;-49
2023/01/21 00:23:47;;;;;;;28.00;11.68;;;;;;;0.17;61.65;101382.89;1926045;74;21120;-50
2023/01/21 00:26:15;;;;;;;30.30;11.93;;;;;;;0.16;61.64;101387.62;1893400;74;21026;-55
2023/01/21 00:28:45;;;;;;;29.95;11.63;;;;;;;0.15;61.65;101384.59;1930102;74;21540;-58
2023/01/21 00:31:14;;;;;;;22.22;10.95;;;;;;;0.14;61.63;101384.14;1928889;74;21531;-58
2023/01/21 00:33:42;;;;;;;32.60;12.63;;;;;;;0.13;61.57;101386.27;1887414;76;21214;-48
2023/01/21 00:36:13;;;;;;;26.95;10.55;;;;;;;0.08;61.61;101377.16;1888636;74;21046;-49
2023/01/21 00:38:42;;;;;;;24.50;9.18;;;;;;;0.04;61.82;101379.66;1896699;74;21062;-50
2023/01/21 00:41:13;;;;;;;28.40;9.53;;;;;;;-0.04;61.71;101374.38;1890735;76;21104;-49
2023/01/21 00:43:43;;;;;;;30.55;11.68;;;;;;;-0.12;61.85;101378.59;1890992;74;21022;-49
2023/01/21 00:46:12;;;;;;;30.45;10.05;;;;;;;-0.18;61.96;101383.25;1890642;76;21179;-56
2023/01/21 00:48:40;;;;;;;25.88;10.55;;;;;;;-0.20;61.91;101372.00;1891168;74;21171;-49
2023/01/21 00:51:09;;;;;;;32.58;11.50;;;;;;;-0.21;61.72;101379.31;1890790;76;21115;-57
2023/01/21 00:53:45;;;;;;;29.00;11.35;;;;;;;-0.20;61.65;101382.36;1906041;74;21038;-58
2023/01/21 00:56:12;;;;;;;37.08;11.60;;;;;;;-0.24;62.45;101381.44;1928850;74;21492;-60
2023/01/21 00:58:46;;;;;;;27.37;9.53;;;;;;;-0.26;62.70;101386.13;1916649;74;21030;-65
2023/01/21 01:01:18;;;;;;;33.28;9.75;;;;;;;-0.29;62.49;101388.25;1887525;76;21133;-59
2023/01/21 01:03:48;;;;;;;33.70;9.40;;;;;;;-0.31;62.46;101382.18;1888694;74;21538;-59
2023/01/21 01:06:22;;;;;;;23.98;10.20;;;;;;;-0.30;62.29;101385.63;1899424;74;21046;-59
2023/01/21 01:08:51;;;;;;;34.48;11.18;;;;;;;-0.30;62.21;101393.40;1926729;74;21120;-60
2023/01/21 01:11:20;;;;;;;36.83;11.30;;;;;;;-0.30;62.20;101392.10;1890221;75;21191;-59
2023/01/21 01:13:49;;;;;;;23.77;9.30;;;;;;;-0.30;62.17;101394.25;1887675;76;21022;-60
2023/01/21 01:16:17;;;;;;;23.90;10.80;;;;;;;-0.27;62.15;101396.05;1929121;74;21035;-60
2023/01/21 01:18:47;;;;;;;26.45;10.38;;;;;;;-0.29;62.04;101397.73;1919602;74;21141;-61
2023/01/21 01:21:20;;;;;;;28.23;11.08;;;;;;;-0.29;62.07;101389.98;1910171;74;21075;-60
2023/01/21 01:23:51;;;;;;;;;;;;;;;-0.31;62.04;101389.95;1890512;76;22242;-62
2023/01/21 01:26:21;;;;;;;27.20;9.68;;;;;;;-0.30;61.84;101390.81;1865973;75;20217;-63
2023/01/21 01:28:50;;;;;;;34.70;11.55;;;;;;;-0.34;61.91;101391.61;1893382;75;21737;-67
2023/01/21 01:31:20;;;;;;;36.93;11.25;;;;;;;-0.35;61.95;101392.44;1868923;75;21106;-58
2023/01/21 01:33:49;;;;;;;23.73;8.98;;;;;;;-0.37;62.03;101395.00;1872227;76;21596;-59
2023/01/21 01:36:25;;;;;;;32.83;11.20;;;;;;;-0.37;62.02;101388.96;1874395;75;21506;-62
2023/01/21 01:38:52;;;;;;;26.75;9.30;;;;;;;-0.38;61.98;101389.83;1871886;76;21096;-57
2023/01/21 01:41:23;;;;;;;29.18;10.55;;;;;;;-0.38;61.84;101397.59;1879102;75;21498;-61
2023/01/21 01:44:00;;;;;;;24.35;11.25;;;;;;;-0.41;61.78;101405.75;1898447;75;21121;-61
2023/01/21 01:46:32;;;;;;;25.57;10.00;;;;;;;-0.45;62.59;101405.23;1854839;75;21220;-59
2023/01/21 01:49:18;;;;;;;33.28;12.73;;;;;;;-0.49;62.51;101411.20;1869906;76;21060;-60
2023/01/21 01:51:56;;;;;;;41.13;12.18;;;;;;;-0.59;63.02;101408.00;1878077;75;21121;-59
2023/01/21 01:54:30;;;;;;;32.28;10.90;;;;;;;-0.61;62.84;101409.29;1898325;75;21149;-58
2023/01/21 01:57:01;;;;;;;46.77;11.40;;;;;;;-0.62;62.68;101409.26;1889015;75;21629;-62
2023/01/21 01:59:31;;;;;;;42.48;11.48;;;;;;;-0.66;62.75;101397.13;1845466;78;21124;-58
2023/01/21 02:02:08;;;;;;;30.90;11.33;;;;;;;-0.68;62.93;101393.21;1846549;75;21493;-61
2023/01/21 02:04:41;;;;;;;29.27;11.97;;;;;;;-0.69;63.01;101390.16;1898331;75;21183;-60
2023/01/21 02:07:10;;;;;;;36.58;12.58;;;;;;;-0.70;63.16;101399.18;1896079;75;21110;-49
2023/01/21 02:09:39;;;;;;;32.67;12.35;;;;;;;-0.70;63.65;101405.64;1867476;75;21227;-62
2023/01/21 02:12:08;;;;;;;36.83;12.07;;;;;;;-0.71;63.64;101403.92;1878916;75;21201;-58
2023/01/21 02:14:41;;;;;;;21.33;9.38;;;;;;;-0.74;63.51;101410.32;1865349;76;21047;-60
2023/01/21 02:17:13;;;;;;;21.25;9.35;;;;;;;-0.83;63.62;101404.16;1858821;76;21059;-60
2023/01/21 02:20:09;;;;;;;28.57;10.60;;;;;;;-0.83;63.54;101418.38;1867576;76;21068;-60
2023/01/21 02:23:11;;;;;;;33.13;10.18;;;;;;;-0.80;63.57;101413.23;1872510;76;21585;-61
2023/01/21 02:25:54;;;;;;;47.73;14.43;;;;;;;-0.80;63.57;101417.12;1870627;76;21149;-59
2023/01/21 02:29:00;;;;;;;32.83;12.00;;;;;;;-0.79;63.69;101422.75;1868578;76;21104;-59
2023/01/21 02:31:58;;;;;;;42.10;12.43;;;;;;;-0.79;63.52;101430.94;1870473;76;21548;-58
2023/01/21 02:34:45;;;;;;;45.08;13.08;;;;;;;-0.80;63.40;101439.09;1884023;76;21034;-59
2023/01/21 02:37:29;;;;;;;27.73;11.80;;;;;;;-0.80;63.30;101440.39;1883783;76;21469;-56
2023/01/21 02:40:12;;;;;;;38.25;13.10;;;;;;;-0.79;63.27;101436.98;1876186;76;21116;-57
2023/01/21 02:42:57;;;;;;;16.15;8.98;;;;;;;-0.78;63.28;101445.59;1877322;76;21163;-58
2023/01/21 02:45:31;;;;;;;28.47;12.47;;;;;;;-0.79;63.21;101456.37;1859605;76;21088;-58
2023/01/21 02:48:18;;;;;;;28.50;10.32;;;;;;;-0.81;63.23;101452.89;1874052;76;21043;-59
2023/01/21 02:50:49;;;;;;;17.50;7.95;;;;;;;-0.86;63.46;101451.06;1853468;76;21555;-59
2023/01/21 02:53:30;;;;;;;27.52;11.12;;;;;;;-0.90;63.52;101447.54;1845049;77;21131;-62
2023/01/21 02:56:04;;;;;;;31.25;11.12;;;;;;;-0.92;64.12;101459.57;1844978;77;21018;-62
2023/01/21 02:58:36;;;;;;;21.93;10.10;;;;;;;-0.96;64.44;101452.57;1844907;77;21203;-62
2023/01/21 03:01:16;;;;;;;30.12;10.70;;;;;;;-0.99;64.37;101457.27;1845279;76;21077;-62
2023/01/21 03:04:09;;;;;;;24.75;8.85;;;;;;;-1.00;64.37;101442.63;1843676;78;21113;-57
2023/01/21 03:06:50;;;;;;;27.05;11.05;;;;;;;-1.01;64.26;101433.11;1844875;77;21054;-59
2023/01/21 03:09:25;;;;;;;33.23;10.53;;;;;;;-1.04;64.43;101441.22;1840777;78;21143;-59
2023/01/21 03:12:03;;;;;;;29.20;10.85;;;;;;;-1.02;64.46;101449.88;1840584;77;21604;-60
2023/01/21 03:17:40;;;;;;;28.15;9.73;;;;;;;-0.91;64.16;101466.89;1888079;76;21117;-59
2023/01/21 03:20:21;;;;;;;31.57;11.33;;;;;;;-0.83;64.06;101488.59;1894007;76;21051;-62
2023/01/21 03:22:52;;;;;;;8.85;4.70;;;;;;;-0.82;64.21;101493.80;1895575;76;21489;-62
2023/01/21 03:25:24;;;;;;;32.00;12.85;;;;;;;-0.88;64.64;101489.80;1895524;76;21571;-60
2023/01/21 03:27:54;;;;;;;33.18;10.48;;;;;;;-0.90;64.48;101484.17;1895536;76;21493;-61
2023/01/21 03:30:25;;;;;;;33.25;11.40;;;;;;;-0.91;64.53;101469.05;1895512;74;21077;-61
2023/01/21 03:32:56;;;;;;;23.77;8.35;;;;;;;-0.91;64.32;101452.67;1895417;76;21492;-61
2023/01/21 03:35:31;;;;;;;28.20;10.03;;;;;;;-0.91;64.11;101438.03;1895568;76;21108;-61
2023/01/21 03:38:02;;;;;;;27.93;10.63;;;;;;;-0.89;63.97;101433.75;1895538;74;21113;-64
2023/01/21 03:40:34;;;;;;;25.90;12.13;;;;;;;-0.88;63.86;101440.69;1895457;76;21520;-57
2023/01/21 03:43:03;;;;;;;33.45;11.38;;;;;;;-0.90;64.10;101444.95;1895120;75;21710;-55
2023/01/21 03:45:38;;;;;;;30.10;11.05;;;;;;;-0.91;64.37;101443.63;1895374;76;21470;-55
2023/01/21 03:48:09;;;;;;;30.08;11.10;;;;;;;-0.93;64.57;101447.47;1895527;76;21132;-58
2023/01/21 03:50:43;;;;;;;26.87;10.18;;;;;;;-0.91;64.73;101452.25;1893673;76;21543;-58
2023/01/21 03:53:12;;;;;;;31.68;12.03;;;;;;;-0.85;64.68;101460.14;1895538;76;21152;-60
2023/01/21 03:55:42;;;;;;;24.70;10.78;;;;;;;-0.77;64.57;101475.80;1876752;76;21128;-63
2023/01/21 03:58:11;;;;;;;22.85;10.08;;;;;;;-0.73;64.36;101472.42;1884877;76;21025;-55
2023/01/21 04:00:39;;;;;;;29.05;10.53;;;;;;;-0.70;64.43;101485.82;1885187;76;21048;-59
2023/01/21 04:03:08;;;;;;;31.57;10.68;;;;;;;-0.70;64.32;101497.45;1885192;76;21024;-59
2023/01/21 04:05:37;;;;;;;34.10;13.67;;;;;;;-0.70;64.36;101498.75;1885096;76;21108;-59
2023/01/21 04:08:05;;;;;;;32.20;12.23;;;;;;;-0.67;64.28;101525.98;1864128;77;21061;-58
2023/01/21 04:10:34;;;;;;;27.25;9.38;;;;;;;-0.68;64.24;101510.00;1864082;77;21790;-63
2023/01/21 04:13:03;;;;;;;27.45;11.10;;;;;;;-0.67;64.12;101498.82;1864169;77;21174;-63
2023/01/21 04:15:31;;;;;;;30.62;10.48;;;;;;;-0.67;64.02;101499.69;1866310;76;21667;-63
2023/01/21 04:18:00;;;;;;;40.48;10.30;;;;;;;-0.66;63.96;101499.29;1878244;76;21111;-63
2023/01/21 04:20:29;;;;;;;38.23;11.22;;;;;;;-0.71;64.08;101501.77;1881836;75;21052;-63
2023/01/21 04:22:57;;;;;;;37.60;12.68;;;;;;;-0.71;64.05;101503.06;1881708;75;21040;-63
2023/01/21 04:25:26;;;;;;;36.50;12.82;;;;;;;-0.71;63.95;101503.06;1881827;76;21044;-63
2023/01/21 04:27:55;;;;;;;31.33;12.20;;;;;;;-0.74;64.03;101512.47;1883901;75;21056;-63
2023/01/21 04:30:23;;;;;;;29.48;11.78;;;;;;;-0.74;64.12;101515.06;1881808;76;21095;-60
2023/01/21 04:32:52;;;;;;;29.15;10.82;;;;;;;-0.73;64.10;101515.52;1883251;75;21021;-61
2023/01/21 04:35:20;;;;;;;39.27;12.82;;;;;;;-0.72;64.03;101513.38;1881684;76;21021;-61
2023/01/21 04:37:49;;;;;;;25.17;11.73;;;;;;;-0.72;63.99;101515.56;1881800;76;21028;-61
2023/01/21 04:40:19;;;;;;;22.90;8.95;;;;;;;-0.75;64.12;101527.12;1881705;75;21153;-61
2023/01/21 04:42:48;;;;;;;36.05;11.33;;;;;;;-0.74;64.14;101522.81;1881858;75;21020;-61
2023/01/21 04:45:17;;;;;;;33.50;12.73;;;;;;;-0.76;64.18;101529.25;1883915;75;21056;-60
2023/01/21 04:47:46;;;;;;;36.70;12.88;;;;;;;-0.79;64.41;101533.09;1881701;76;21044;-60
2023/01/21 04:50:15;;;;;;;28.70;10.60;;;;;;;-0.76;64.29;101545.20;1881965;75;21048;-59
2023/01/21 04:52:45;;;;;;;39.78;13.18;;;;;;;-0.73;64.29;101528.02;1881426;76;21568;-59
2023/01/21 04:55:14;;;;;;;31.62;12.45;;;;;;;-0.73;64.27;101546.13;1883941;75;21118;-59
2023/01/21 04:57:43;;;;;;;38.58;11.53;;;;;;;-0.73;64.45;101550.44;1881891;76;21600;-59
2023/01/21 05:00:12;;;;;;;34.70;11.80;;;;;;;-0.68;64.34;101535.86;1881790;76;21053;-59
2023/01/21 05:02:41;;;;;;;27.77;10.50;;;;;;;-0.66;64.23;101538.08;1881635;76;21115;-59
2023/01/21 05:05:10;;;;;;;32.35;13.60;;;;;;;-0.69;64.30;101568.63;1883892;75;21114;-59
2023/01/21 05:07:40;;;;;;;33.53;12.78;;;;;;;-0.67;64.33;101562.19;1910841;75;21107;-59
2023/01/21 05:10:21;;;;;;;34.48;11.57;;;;;;;-0.63;64.33;101556.23;1914730;74;21147;-59
2023/01/21 05:12:47;;;;;;;32.25;11.97;;;;;;;-0.61;64.44;101572.65;1913673;74;21087;-59
2023/01/21 05:15:16;;;;;;;37.08;13.22;;;;;;;-0.58;64.29;101566.25;1915082;74;21550;-60
2023/01/21 05:17:44;;;;;;;23.18;10.93;;;;;;;-0.55;64.31;101581.85;1914585;74;21600;-60
2023/01/21 05:20:13;;;;;;;28.52;10.45;;;;;;;-0.50;64.26;101567.70;1914468;74;21048;-57
2023/01/21 05:22:43;;;;;;;32.88;11.63;;;;;;;-0.45;64.13;101576.00;1914691;75;21585;-61
2023/01/21 05:25:12;;;;;;;32.05;14.28;;;;;;;-0.42;64.11;101588.14;1914549;74;21037;-63
2023/01/21 05:27:41;;;;;;;38.92;17.00;;;;;;;-0.39;64.16;101580.41;1915016;74;21037;-58
2023/01/21 05:30:10;;;;;;;45.90;20.27;;;;;;;-0.33;64.15;101600.36;1914553;75;21017;-59
2023/01/21 05:32:39;;;;;;;37.73;17.80;;;;;;;-0.30;64.09;101596.13;1914671;74;21044;-59
2023/01/21 05:35:10;;;;;;;44.40;18.67;;;;;;;-0.22;64.00;101600.17;1914573;75;21114;-59
2023/01/21 05:37:39;;;;;;;27.02;11.35;;;;;;;-0.14;63.96;101601.18;1912186;75;21048;-59
2023/01/21 05:40:09;;;;;;;36.25;12.47;;;;;;;-0.09;63.95;101616.38;1914471;74;21115;-60
2023/01/21 05:42:37;;;;;;;28.90;10.75;;;;;;;-0.05;63.89;101625.95;1914626;75;21111;-59
2023/01/21 05:45:07;;;;;;;31.23;12.18;;;;;;;0.03;63.81;101617.45;1914579;75;21095;-59
2023/01/21 05:47:35;;;;;;;37.70;13.13;;;;;;;0.09;63.82;101627.52;1912252;75;21057;-59
2023/01/21 05:50:05;;;;;;;35.38;13.93;;;;;;;0.16;63.90;101628.05;1914582;75;21080;-57
2023/01/21 05:52:33;;;;;;;35.63;12.68;;;;;;;0.27;63.89;101632.12;1914396;75;21080;-58
2023/01/21 05:55:02;;;;;;;35.15;11.60;;;;;;;0.34;63.72;101635.27;1914561;75;21122;-57
2023/01/21 05:57:31;;;;;;;33.15;12.03;;;;;;;0.43;63.63;101641.48;1912196;75;21126;-57
2023/01/21 06:00:00;;;;;;;31.33;11.85;;;;;;;0.46;63.71;101637.63;1914721;74;21056;-57
2023/01/21 06:02:28;;;;;;;39.05;14.55;;;;;;;0.51;63.60;101651.54;1914554;75;21040;-57
2023/01/21 06:04:57;;;;;;;38.88;15.20;;;;;;;0.65;63.58;101642.72;1914467;75;21012;-58
2023/01/21 06:07:25;;;;;;;38.50;12.63;;;;;;;0.80;63.51;101657.64;1888268;74;21169;-57
2023/01/21 06:09:54;;;;;;;38.15;13.68;;;;;;;0.89;63.55;101666.42;1881793;76;21071;-57
2023/01/21 06:12:23;;;;;;;40.88;13.08;;;;;;;1.02;63.42;101662.30;1881747;76;21146;-58
2023/01/21 06:14:51;;;;;;;45.43;16.07;;;;;;;1.17;63.26;101673.76;1881737;76;21052;-57
2023/01/21 06:17:20;;;;;;;38.42;13.10;;;;;;;1.27;63.17;101671.72;1902448;74;21036;-57
2023/01/21 06:19:49;;;;;;;32.90;13.35;;;;;;;1.42;63.05;101673.26;1919772;73;21671;-58
2023/01/21 06:22:18;;;;;;;42.93;15.58;;;;;;;1.70;63.04;101671.88;1920595;73;21134;-58
2023/01/21 06:24:47;;;;;;;44.55;17.30;;;;;;;2.27;62.65;101675.13;1920522;74;21069;-58
2023/01/21 06:27:15;;;;;;;39.42;15.72;;;;;;;2.68;62.04;101678.97;1918251;75;21052;-58
2023/01/21 06:29:44;;;;;;;45.25;16.60;;;;;;;2.87;61.72;101698.19;1920616;75;21060;-58
2023/01/21 06:32:13;;;;;;;36.13;13.83;;;;;;;2.99;61.38;101695.69;1920469;75;21044;-58
2023/01/21 06:34:41;;;;;;;45.23;14.70;;;;;;;3.04;61.17;101694.00;1920572;75;21040;-59
2023/01/21 06:37:10;;;;;;;40.08;14.55;;;;;;;3.06;61.08;101707.89;1920650;73;21044;-67
2023/01/21 06:39:39;;;;;;;34.90;14.60;;;;;;;3.12;60.94;101707.06;1920756;74;21107;-66
2023/01/21 06:42:07;;;;;;;41.45;13.95;;;;;;;3.05;61.24;101706.58;1920589;73;21036;-66
2023/01/21 06:44:36;;;;;;;39.50;14.58;;;;;;;3.01;61.56;101716.53;1920525;73;21016;-66
2023/01/21 06:47:04;;;;;;;40.40;13.03;;;;;;;2.99;61.69;101707.80;1920612;73;21040;-67
2023/01/21 06:49:33;;;;;;;41.98;12.73;;;;;;;2.95;62.02;101712.15;1917972;73;21045;-67
2023/01/21 06:52:02;;;;;;;36.33;12.10;;;;;;;3.03;62.01;101709.16;1920519;75;21016;-62
2023/01/21 06:54:30;;;;;;;35.45;10.05;;;;;;;3.16;61.77;101720.97;1920565;73;21048;-62
2023/01/21 06:56:59;;;;;;;32.80;11.20;;;;;;;3.28;61.65;101715.42;1920489;74;21080;-64
2023/01/21 06:59:28;;;;;;;35.70;10.85;;;;;;;3.46;61.31;101723.76;1918355;73;21017;-64
2023/01/21 07:01:57;;;;;;;38.98;11.83;;;;;;;3.72;60.88;101729.55;1920713;73;21169;-64
2023/01/21 07:04:28;;;;;;;22.98;8.10;;;;;;;4.04;60.68;101729.70;1920220;73;21584;-64
2023/01/21 07:06:57;;;;;;;35.28;11.35;;;;;;;4.20;60.39;101726.70;1897369;74;21128;-62
2023/01/21 07:09:25;;;;;;;32.05;12.50;;;;;;;4.30;60.07;101729.34;1897348;75;21048;-63
2023/01/21 07:11:54;;;;;;;36.33;10.78;;;;;;;4.37;60.00;101736.31;1920503;75;21119;-64
2023/01/21 07:14:23;;;;;;;29.50;11.55;;;;;;;4.38;59.83;101737.63;1920597;75;21036;-66
2023/01/21 07:16:52;;;;;;;39.73;12.05;;;;;;;4.47;59.83;101751.56;1903309;74;21059;-66
2023/01/21 07:19:21;;;;;;;39.75;13.38;;;;;;;4.55;59.72;101768.09;1874870;75;21531;-66
2023/01/21 07:21:50;;;;;;;38.50;13.48;;;;;;;4.79;59.43;101773.79;1854744;77;21069;-66
2023/01/21 07:24:18;;;;;;;41.20;12.78;;;;;;;4.88;59.27;101767.27;1854714;76;21130;-64
2023/01/21 07:26:47;;;;;;;40.48;12.90;;;;;;;5.01;59.17;101769.46;1856882;76;21057;-64
2023/01/21 07:29:16;;;;;;;39.53;13.83;;;;;;;5.30;59.12;101764.23;1854792;76;21084;-64
2023/01/21 07:31:44;;;;;;;38.05;11.73;;;;;;;5.84;58.66;101773.73;1854778;77;21103;-64
2023/01/21 07:34:13;;;;;;;45.23;13.58;;;;;;;6.22;58.13;101768.84;1854785;76;21052;-60
2023/01/21 07:36:41;;;;;;;50.75;17.62;;;;;;;6.27;58.10;101767.05;1855830;75;21048;-60
2023/01/21 07:39:10;;;;;;;45.92;14.95;;;;;;;6.36;58.08;101763.97;1855053;75;21068;-60
2023/01/21 07:41:39;;;;;;;41.25;13.35;;;;;;;6.64;57.69;101762.50;1854786;76;21479;-60
2023/01/21 07:44:10;;;;;;;13.50;5.80;;;;;;;7.25;56.80;101766.40;1854656;76;21112;-60
2023/01/21 07:46:38;;;;;;;45.38;14.53;;;;;;;8.06;56.09;101769.92;1854884;76;21507;-60
2023/01/21 07:49:07;;;;;;;39.98;13.18;;;;;;;8.71;55.04;101778.28;1856802;76;21068;-60
2023/01/21 07:51:35;;;;;;;40.03;13.35;;;;;;;9.25;54.01;101784.00;1854884;77;21134;-60
2023/01/21 07:54:04;;;;;;;36.90;12.25;;;;;;;10.50;52.68;101784.27;1854744;76;21088;-61
2023/01/21 07:56:33;;;;;;;31.48;11.08;;;;;;;11.64;51.35;101781.47;1854888;76;21048;-61
2023/01/21 07:59:02;;;;;;;36.42;11.75;;;;;;;12.49;50.13;101785.27;1857410;76;21127;-61
2023/01/21 08:01:31;;;;;;;39.18;12.03;;;;;;;13.10;49.34;101793.89;1854853;77;21095;-61
2023/01/21 08:04:00;;;;;;;37.55;12.88;;;;;;;13.74;48.31;101798.39;1854660;77;21100;-58
2023/01/21 08:06:28;;;;;;;43.05;12.90;;;;;;;14.22;46.50;101801.05;1867850;75;21052;-54
2023/01/21 08:08:58;;;;;;;34.40;11.73;;;;;;;14.73;45.70;101800.45;1886354;76;21571;-58
2023/01/21 08:11:27;;;;;;;31.85;11.95;;;;;;;15.47;44.67;101808.50;1885317;75;21045;-58
2023/01/21 08:13:55;;;;;;;34.70;12.28;;;;;;;15.59;43.26;101805.34;1886298;76;21033;-58
2023/01/21 08:16:24;;;;;;;37.42;13.45;;;;;;;15.17;44.43;101819.48;1886714;75;21128;-59
2023/01/21 08:18:53;;;;;;;40.40;13.72;;;;;;;15.59;43.72;101823.92;1886407;76;21111;-60
2023/01/21 08:21:22;;;;;;;30.23;11.45;;;;;;;15.88;41.84;101813.84;1886307;74;21072;-58
2023/01/21 08:23:50;;;;;;;34.08;12.55;;;;;;;16.46;41.34;101816.52;1886270;76;21118;-62
2023/01/21 08:26:19;;;;;;;40.12;12.75;;;;;;;16.51;40.40;101811.00;1886426;75;21017;-62
2023/01/21 08:28:47;;;;;;;38.40;14.90;;;;;;;16.84;40.17;101809.00;1886579;75;21044;-62
2023/01/21 08:31:16;;;;;;;30.40;11.40;;;;;;;16.69;38.60;101817.22;1886332;76;21099;-60
2023/01/21 08:33:46;;;;;;;37.55;13.83;;;;;;;16.67;39.09;101818.62;1886481;76;21201;-63
2023/01/21 08:36:15;;;;;;;34.08;12.33;;;;;;;16.44;38.71;101830.82;1885537;76;21096;-60
2023/01/21 08:38:44;;;;;;;43.25;13.80;;;;;;;15.65;39.22;101827.63;1886757;75;21068;-61
2023/01/21 08:41:13;;;;;;;33.18;12.65;;;;;;;15.82;38.49;101826.48;1886181;76;21115;-62
2023/01/21 08:43:41;;;;;;;31.97;11.73;;;;;;;16.26;38.03;101825.41;1886390;75;21045;-62
2023/01/21 08:46:10;;;;;;;37.30;13.53;;;;;;;16.55;37.86;101832.03;1886421;75;21123;-62
2023/01/21 08:48:39;;;;;;;34.60;12.13;;;;;;;16.68;38.00;101832.80;1884160;76;21064;-62
2023/01/21 08:51:07;;;;;;;32.23;12.25;;;;;;;16.43;37.99;101824.62;1886531;75;21048;-62
2023/01/21 08:53:36;;;;;;;30.02;10.58;;;;;;;15.88;37.49;101828.44;1886468;76;21503;-62
2023/01/21 08:56:05;;;;;;;34.88;13.28;;;;;;;15.20;38.41;101841.91;1886510;76;21155;-62
2023/01/21 08:58:34;;;;;;;30.70;11.48;;;;;;;14.78;39.01;101828.12;1886834;75;21033;-62
2023/01/21 09:01:10;;;;;;;33.40;11.73;;;;;;;14.57;39.14;101822.73;1886449;76;21036;-62
2023/01/21 09:03:39;;;;;;;31.20;12.30;;;;;;;14.81;38.63;101831.95;1886472;76;21102;-61
2023/01/21 09:06:08;;;;;;;34.15;11.88;;;;;;;15.27;37.90;101832.78;1884208;75;21237;-62
2023/01/21 09:08:38;;;;;;;31.68;11.83;;;;;;;15.41;37.79;101827.73;1886332;76;21550;-62
2023/01/21 09:11:08;;;;;;;33.90;11.93;;;;;;;15.86;37.42;101831.63;1886541;76;21044;-62
2023/01/21 09:13:39;;;;;;;34.55;12.63;;;;;;;15.72;37.15;101833.08;1886361;75;21144;-62
2023/01/21 09:16:10;;;;;;;33.60;12.23;;;;;;;15.86;36.88;101828.53;1886245;73;21558;-62
2023/01/21 09:18:38;;;;;;;35.38;12.80;;;;;;;16.47;36.42;101832.88;1886930;74;21033;-62
2023/01/21 09:21:08;;;;;;;34.33;11.65;;;;;;;17.07;35.60;101829.18;1886357;74;21081;-62
2023/01/21 09:23:38;;;;;;;32.08;10.53;;;;;;;17.18;35.33;101821.05;1886362;76;21582;-61
2023/01/21 09:26:12;;;;;;;33.13;11.50;;;;;;;17.50;35.22;101828.36;1886525;76;21115;-61
2023/01/21 09:28:45;;;;;;;33.50;10.88;;;;;;;17.98;34.79;101825.92;1886067;74;21089;-61
2023/01/21 09:31:17;;;;;;;29.57;9.88;;;;;;;18.46;34.44;101821.55;1886415;75;21032;-62
2023/01/21 09:33:48;;;;;;;33.63;11.28;;;;;;;18.50;33.93;101834.64;1886332;75;21053;-57
2023/01/21 09:36:20;;;;;;;29.72;10.50;;;;;;;18.81;33.45;101823.64;1886407;76;21111;-61
2023/01/21 09:38:49;;;;;;;31.17;10.95;;;;;;;19.12;33.23;101823.19;1863880;76;21146;-62
2023/01/21 09:41:36;;;;;;;34.55;11.85;;;;;;;19.12;32.75;101817.86;1854904;77;21556;-62
2023/01/21 09:44:25;;;;;;;30.27;10.32;;;;;;;19.46;32.56;101819.90;1854831;76;21053;-62
2023/01/21 09:46:56;;;;;;;32.38;12.58;;;;;;;19.40;32.19;101813.11;1873119;76;21118;-62
2023/01/21 09:49:33;;;;;;;32.85;12.13;;;;;;;19.46;32.04;101818.56;1895738;75;21044;-62
2023/01/21 09:52:21;;;;;;;36.38;12.90;;;;;;;19.41;31.78;101816.15;1905426;75;21153;-67
2023/01/21 09:54:50;;;;;;;36.88;12.95;;;;;;;19.24;31.67;101818.48;1905518;75;21467;-67
2023/01/21 09:57:43;;;;;;;35.08;12.93;;;;;;;19.21;31.80;101821.33;1905476;75;21040;-63
2023/01/21 10:00:33;;;;;;;32.98;12.13;;;;;;;19.34;31.39;101815.27;1875413;75;21124;-63
2023/01/21 10:03:39;;;;;;;38.08;13.43;;;;;;;19.64;31.23;101814.79;1873080;76;21509;-61
2023/01/21 10:06:17;;;;;;;33.78;12.23;;;;;;;19.43;30.85;101812.91;1880927;75;21110;-61
2023/01/21 10:09:01;;;;;;;38.80;13.22;;;;;;;19.56;31.00;101809.03;1901398;75;21110;-61
2023/01/21 10:11:35;;;;;;;35.52;11.50;;;;;;;19.02;31.31;101823.36;1834351;76;21130;-62
2023/01/21 10:14:32;;;;;;;37.35;13.80;;;;;;;18.39;31.87;101821.05;1873163;75;21043;-61
2023/01/21 10:17:13;;;;;;;34.15;11.22;;;;;;;18.47;31.78;101817.95;1872926;76;21477;-59
2023/01/21 10:20:06;;;;;;;38.90;12.50;;;;;;;18.33;31.90;101824.02;1873001;76;21105;-61
2023/01/21 10:22:35;;;;;;;32.85;11.50;;;;;;;17.85;32.21;101819.90;1874375;75;21116;-62
2023/01/21 10:25:09;;;;;;;32.78;12.85;;;;;;;18.10;31.95;101825.28;1840205;78;21041;-66
2023/01/21 10:30:24;;;;;;;33.30;12.40;;;;;;;18.50;31.52;101813.30;1873153;76;21546;-60
2023/01/21 10:32:55;;;;;;;25.85;10.08;;;;;;;18.95;31.42;101815.31;1873128;76;21130;-57
2023/01/21 10:35:29;;;;;;;34.33;12.37;;;;;;;19.06;31.20;101811.06;1878919;76;21472;-61
2023/01/21 10:38:00;;;;;;;40.08;13.72;;;;;;;19.01;31.16;101818.47;1879427;75;21103;-64
2023/01/21 10:40:44;;;;;;;36.17;13.05;;;;;;;19.20;30.88;101819.63;1879140;75;21104;-64
2023/01/21 10:43:33;;;;;;;48.10;14.50;;;;;;;19.33;30.81;101810.42;1878410;75;21045;-63
2023/01/21 10:46:16;;;;;;;37.80;13.68;;;;;;;19.34;30.78;101812.61;1841801;78;21060;-62
2023/01/21 10:48:54;;;;;;;37.15;14.43;;;;;;;19.36;30.79;101805.36;1841603;78;21156;-62
2023/01/21 10:51:25;;;;;;;37.03;13.95;;;;;;;19.59;30.70;101811.53;1841434;78;21021;-61
2023/01/21 10:54:18;;;;;;;38.92;12.68;;;;;;;19.29;30.94;101817.75;1848741;75;21171;-59
2023/01/21 10:56:58;;;;;;;39.15;13.25;;;;;;;18.80;31.39;101823.69;1907472;75;21141;-59
2023/01/21 10:59:30;;;;;;;33.98;12.35;;;;;;;18.58;31.78;101824.03;1911577;75;21576;-64
2023/01/21 11:02:19;;;;;;;35.70;13.38;;;;;;;18.54;31.82;101823.81;1874143;75;21049;-59
2023/01/21 11:04:48;;;;;;;33.18;12.80;;;;;;;18.92;31.37;101821.66;1858813;76;21162;-60
2023/01/21 11:07:20;;;;;;;32.13;11.57;;;;;;;19.07;31.29;101825.26;1869919;76;21086;-62
2023/01/21 11:09:49;;;;;;;27.87;9.73;;;;;;;18.93;31.36;101831.41;1865034;77;21110;-63
2023/01/21 11:12:20;;;;;;;31.37;11.57;;;;;;;18.17;31.96;101827.13;1865002;77;21051;-62
2023/01/21 11:14:51;;;;;;;37.25;11.78;;;;;;;17.67;32.48;101819.05;1865091;75;21051;-62
2023/01/21 11:17:39;;;;;;;28.62;11.43;;;;;;;16.71;33.61;101823.32;1872874;75;21582;-58
2023/01/21 11:20:19;;;;;;;29.72;10.25;;;;;;;15.65;34.80;101828.95;1871508;76;21030;-61
2023/01/21 11:22:49;;;;;;;30.32;11.05;;;;;;;15.16;35.39;101832.33;1871009;76;21046;-60
2023/01/21 11:25:35;;;;;;;26.55;10.35;;;;;;;15.33;35.24;101843.13;1872039;76;21529;-60
2023/01/21 11:28:05;;;;;;;33.55;11.08;;;;;;;15.56;34.97;101834.66;1872027;76;21102;-56
2023/01/21 11:30:38;;;;;;;29.32;10.15;;;;;;;16.13;34.41;101835.72;1872291;76;21499;-56
2023/01/21 11:33:27;;;;;;;24.37;8.95;;;;;;;16.77;33.70;101835.88;1872538;76;21127;-57
2023/01/21 11:35:57;;;;;;;31.15;9.95;;;;;;;17.11;33.33;101831.59;1872329;76;21048;-62
2023/01/21 11:38:33;;;;;;;32.65;11.03;;;;;;;17.00;33.48;101835.73;1872198;76;21601;-60
2023/01/21 11:41:08;;;;;;;46.02;13.45;;;;;;;17.26;33.26;101845.95;1782353;80;21481;-61